Time;durP1;ratioP1;P1;durP2;ratioP2;P2;SDS_P1;SDS_P2;PMS_P1;PMS_P2;Temp;Humidity;BMP_temperature;BMP_pressure;BME280_temperature;BME280_humidity;BME280_pressure;Samples;Min_cycle;Max_cycle;Signal;HPM_P1;HPM_P2
2023/04/04 05:52:40;;;;;;;3.33;1.88;;;;;;;;;;10592249;27;20476;-85
2023/04/04 05:57:48;;;;;;;5.30;2.83;;;;;;;;;;10586710;28;20066;-85
2023/04/04 06:02:50;;;;;;;4.18;2.50;;;;;;;;;;10587633;28;20016;-84
2023/04/04 06:07:51;;;;;;;3.33;2.22;;;;;;;;;;10584312;28;20019;-84
2023/04/04 06:12:52;;;;;;;7.47;2.80;;;;;;;;;;10591552;27;20020;-84
2023/04/04 06:17:53;;;;;;;4.47;2.63;;;;;;;;;;10589220;28;20397;-84
2023/04/04 06:22:54;;;;;;;3.00;2.00;;;;;;;;;;10605887;27;20035;-84
2023/04/04 06:27:55;;;;;;;;;;;;;;;;;;10598167;28;20028;-84
2023/04/04 06:32:56;;;;;;;2.90;2.00;;;;;;;;;;10593075;28;20428;-84
2023/04/04 06:37:57;;;;;;;3.17;2.20;;;;;;;;;;10594387;28;20526;-84
2023/04/04 06:42:58;;;;;;;;;;;;;;;;;;10597237;28;20044;-84
2023/04/04 06:48:00;;;;;;;4.88;2.90;;;;;;;;;;10590228;28;19912;-84
2023/04/04 06:53:01;;;;;;;;;;;;;;;;;;10590426;28;20027;-82
2023/04/04 06:58:02;;;;;;;3.50;2.40;;;;;;;;;;10588751;28;19924;-84
2023/04/04 07:03:03;;;;;;;;;;;;;;;;;;10563619;28;20020;-80
2023/04/04 07:08:04;;;;;;;7.35;4.10;;;;;;;;;;10557810;28;20357;-81
2023/04/04 07:13:05;;;;;;;6.50;3.78;;;;;;;;;;10556703;28;20099;-81
2023/04/04 07:18:06;;;;;;;6.35;4.00;;;;;;;;;;10557300;28;20398;-82
2023/04/04 07:23:07;;;;;;;5.60;3.58;;;;;;;;;;10556123;28;20119;-82
2023/04/04 07:28:08;;;;;;;;;;;;;;;;;;10557620;28;20096;-82
2023/04/04 07:33:09;;;;;;;5.38;3.50;;;;;;;;;;10566224;28;19967;-81
2023/04/04 07:38:10;;;;;;;;;;;;;;;;;;10563055;28;20386;-82
2023/04/04 07:43:11;;;;;;;5.47;3.30;;;;;;;;;;10555154;28;19904;-81
2023/04/04 07:48:12;;;;;;;5.55;2.65;;;;;;;;;;10554793;28;20070;-80
2023/04/04 07:53:13;;;;;;;;;;;;;;;;;;10554259;28;20036;-81
2023/04/04 07:58:15;;;;;;;5.10;2.53;;;;;;;;;;10554731;28;19908;-81
2023/04/04 08:03:16;;;;;;;4.45;2.65;;;;;;;;;;10555779;28;20550;-81
2023/04/04 08:08:17;;;;;;;4.85;2.97;;;;;;;;;;10551963;28;20474;-79
2023/04/04 08:13:18;;;;;;;3.22;2.13;;;;;;;;;;10553454;28;20078;-81
2023/04/04 08:18:20;;;;;;;4.45;2.78;;;;;;;;;;10554116;28;20138;-81
2023/04/04 08:23:21;;;;;;;4.97;2.65;;;;;;;;;;10554446;28;20402;-83
2023/04/04 08:28:22;;;;;;;5.03;2.10;;;;;;;;;;10553463;28;20118;-81
2023/04/04 08:33:23;;;;;;;;;;;;;;;;;;10555439;28;20104;-81
2023/04/04 08:38:24;;;;;;;3.58;1.90;;;;;;;;;;10556156;28;20023;-79
2023/04/04 08:43:26;;;;;;;2.90;1.77;;;;;;;;;;10554866;28;20112;-80
2023/04/04 08:48:29;;;;;;;3.63;1.70;;;;;;;;;;10556188;28;20074;-82
2023/04/04 08:53:31;;;;;;;3.58;1.80;;;;;;;;;;10567736;28;20028;-79
2023/04/04 08:58:32;;;;;;;3.10;1.90;;;;;;;;;;10564281;28;20024;-79
2023/04/04 09:03:34;;;;;;;3.97;2.00;;;;;;;;;;10557967;28;20128;-80
2023/04/04 09:08:35;;;;;;;3.05;1.60;;;;;;;;;;10551625;28;20111;-80
2023/04/04 09:13:39;;;;;;;3.65;1.65;;;;;;;;;;10551535;28;20067;-80
2023/04/04 09:18:40;;;;;;;5.18;1.70;;;;;;;;;;10563928;28;20036;-79
2023/04/04 09:23:41;;;;;;;;;;;;;;;;;;10550644;28;20016;-81
2023/04/04 09:28:42;;;;;;;3.47;1.33;;;;;;;;;;10547904;28;19950;-81
2023/04/04 09:33:43;;;;;;;3.78;1.58;;;;;;;;;;10554912;28;20512;-81
2023/04/04 09:38:47;;;;;;;4.65;2.20;;;;;;;;;;10557772;28;20036;-81
2023/04/04 09:43:48;;;;;;;3.22;1.60;;;;;;;;;;10562413;28;20092;-81
2023/04/04 09:48:54;;;;;;;5.70;3.17;;;;;;;;;;10562150;28;20047;-81
2023/04/04 09:54:03;;;;;;;3.15;1.58;;;;;;;;;;10557267;28;20039;-85
2023/04/04 09:59:11;;;;;;;2.70;1.38;;;;;;;;;;10582405;28;20011;-82
2023/04/04 10:04:14;;;;;;;5.63;3.60;;;;;;;;;;10595372;28;20115;-82
2023/04/04 10:09:20;;;;;;;4.05;1.92;;;;;;;;;;10605640;28;20562;-82
2023/04/04 10:14:33;;;;;;;6.50;1.90;;;;;;;;;;10600349;28;20039;-83
2023/04/04 10:19:38;;;;;;;3.03;1.50;;;;;;;;;;10603751;28;20020;-82
2023/04/04 10:24:46;;;;;;;3.72;1.60;;;;;;;;;;10600749;28;20398;-81
2023/04/04 10:29:47;;;;;;;2.70;1.70;;;;;;;;;;10598008;28;20038;-83
2023/04/04 10:35:14;;;;;;;3.70;1.70;;;;;;;;;;10597329;28;20024;-81
2023/04/04 10:40:27;;;;;;;4.90;1.85;;;;;;;;;;10544070;28;20040;-81
2023/04/04 10:45:29;;;;;;;2.65;1.55;;;;;;;;;;10607989;28;20397;-82
2023/04/04 10:50:32;;;;;;;4.07;2.20;;;;;;;;;;10631680;27;20027;-82
2023/04/04 10:55:34;;;;;;;2.72;1.33;;;;;;;;;;10651895;27;20096;-82
2023/04/04 11:00:55;;;;;;;7.20;5.03;;;;;;;;;;10634636;27;20027;-82
2023/04/04 11:06:03;;;;;;;2.83;1.52;;;;;;;;;;10649908;27;20425;-84
2023/04/04 11:11:04;;;;;;;2.63;1.50;;;;;;;;;;10628979;27;20023;-81
2023/04/04 11:16:15;;;;;;;5.22;2.22;;;;;;;;;;10627953;27;20032;-82
2023/04/04 11:21:28;;;;;;;4.95;2.72;;;;;;;;;;10628139;27;20019;-82
2023/04/04 11:26:30;;;;;;;5.82;3.78;;;;;;;;;;10640470;27;20035;-83
2023/04/04 11:32:02;;;;;;;3.50;2.25;;;;;;;;;;10629537;27;20028;-83
2023/04/04 11:37:16;;;;;;;5.28;2.22;;;;;;;;;;10632026;27;20039;-83
2023/04/04 11:42:20;;;;;;;3.28;2.05;;;;;;;;;;10629109;27;20455;-83
2023/04/04 11:47:25;;;;;;;3.00;1.98;;;;;;;;;;10628154;27;20023;-84
2023/04/04 11:52:33;;;;;;;3.30;1.88;;;;;;;;;;10624223;27;20076;-84
2023/04/04 11:57:40;;;;;;;4.93;2.50;;;;;;;;;;10625513;27;20039;-84
2023/04/04 12:02:42;;;;;;;3.20;2.22;;;;;;;;;;10618391;22;20048;-81
2023/04/04 12:07:43;;;;;;;2.70;1.70;;;;;;;;;;10542708;28;20055;-79
2023/04/04 12:12:45;;;;;;;4.00;1.73;;;;;;;;;;10572030;28;20039;-79
2023/04/04 12:17:47;;;;;;;9.85;7.13;;;;;;;;;;10547568;28;20461;-79
2023/04/04 12:22:51;;;;;;;3.97;1.95;;;;;;;;;;10558265;28;20043;-78
2023/04/04 12:27:53;;;;;;;5.53;2.50;;;;;;;;;;10531513;28;20031;-79
2023/04/04 12:32:54;;;;;;;4.65;2.28;;;;;;;;;;10552195;28;20473;-80
2023/04/04 12:37:58;;;;;;;6.03;2.30;;;;;;;;;;10528948;28;20024;-81
2023/04/04 12:43:00;;;;;;;2.75;2.10;;;;;;;;;;10530897;28;20085;-81
2023/04/04 12:48:07;;;;;;;4.93;1.83;;;;;;;;;;10530774;28;20028;-81
2023/04/04 12:53:09;;;;;;;4.75;2.60;;;;;;;;;;10531102;28;20073;-82
2023/04/04 12:58:10;;;;;;;4.00;2.53;;;;;;;;;;10550959;28;20020;-81
2023/04/04 13:03:14;;;;;;;3.17;1.25;;;;;;;;;;10533926;28;20058;-81
2023/04/04 13:08:16;;;;;;;5.28;2.75;;;;;;;;;;10565296;28;20048;-80
2023/04/04 13:13:30;;;;;;;3.63;1.90;;;;;;;;;;10538355;28;20020;-80
2023/04/04 13:18:41;;;;;;;5.13;2.33;;;;;;;;;;10537244;28;20024;-81
2023/04/04 13:23:42;;;;;;;;;;;;;;;;;;10551301;28;20027;-80
2023/04/04 13:28:43;;;;;;;6.53;2.67;;;;;;;;;;10523897;28;20346;-80
2023/04/04 13:33:45;;;;;;;3.83;2.90;;;;;;;;;;10524757;28;20354;-80
2023/04/04 13:38:46;;;;;;;4.05;2.00;;;;;;;;;;10510623;28;20024;-80
2023/04/04 13:43:47;;;;;;;3.08;2.10;;;;;;;;;;10534449;28;20024;-79
2023/04/04 13:48:48;;;;;;;3.17;1.85;;;;;;;;;;10534629;28;20035;-79
2023/04/04 13:53:50;;;;;;;2.22;1.45;;;;;;;;;;10549206;28;20062;-80
2023/04/04 13:58:52;;;;;;;4.95;2.17;;;;;;;;;;10551356;28;20103;-81
2023/04/04 14:03:53;;;;;;;4.47;2.90;;;;;;;;;;10528923;28;20039;-82
2023/04/04 14:08:56;;;;;;;3.92;2.10;;;;;;;;;;10528973;28;20046;-79
2023/04/04 14:13:57;;;;;;;4.28;1.80;;;;;;;;;;10562227;28;20020;-80
2023/04/04 14:18:58;;;;;;;3.50;2.22;;;;;;;;;;10543946;28;20129;-80
2023/04/04 14:23:59;;;;;;;4.28;2.15;;;;;;;;;;10550132;28;20036;-79
2023/04/04 14:29:00;;;;;;;;;;;;;;;;;;10560519;28;20107;-80
2023/04/04 14:34:02;;;;;;;4.80;2.97;;;;;;;;;;10537089;28;20026;-81
2023/04/04 14:39:03;;;;;;;4.95;2.28;;;;;;;;;;10535391;28;20134;-81
2023/04/04 14:44:05;;;;;;;3.92;1.98;;;;;;;;;;10535419;28;20031;-82
2023/04/04 14:49:07;;;;;;;2.53;1.25;;;;;;;;;;10537193;28;20389;-81
2023/04/04 14:54:10;;;;;;;5.40;1.77;;;;;;;;;;10544893;28;20020;-79
2023/04/04 14:59:11;;;;;;;8.30;4.28;;;;;;;;;;10546982;28;20093;-82
2023/04/04 15:04:12;;;;;;;3.95;2.80;;;;;;;;;;10519571;28;20043;-80
2023/04/04 15:09:13;;;;;;;;;;;;;;;;;;10543654;28;20020;-80
2023/04/04 15:14:14;;;;;;;2.95;1.83;;;;;;;;;;10535878;28;19959;-81
2023/04/04 15:19:15;;;;;;;5.40;2.85;;;;;;;;;;10535362;28;20056;-83
2023/04/04 15:24:16;;;;;;;;;;;;;;;;;;10535407;28;20142;-82
2023/04/04 15:29:18;;;;;;;5.15;2.20;;;;;;;;;;10532623;28;19918;-81
2023/04/04 15:34:19;;;;;;;2.88;1.60;;;;;;;;;;10530853;28;20070;-83
2023/04/04 15:39:20;;;;;;;4.05;2.13;;;;;;;;;;10532851;28;20028;-82
2023/04/04 15:44:21;;;;;;;2.95;1.70;;;;;;;;;;10535370;28;20070;-83
2023/04/04 15:49:22;;;;;;;3.08;1.95;;;;;;;;;;10533773;28;20027;-81
2023/04/04 15:54:23;;;;;;;;;;;;;;;;;;10532885;28;20091;-81
2023/04/04 15:59:25;;;;;;;2.97;1.40;;;;;;;;;;10533232;28;19904;-82
2023/04/04 16:04:27;;;;;;;4.40;2.20;;;;;;;;;;10534094;28;20039;-82
2023/04/04 16:09:35;;;;;;;6.80;4.18;;;;;;;;;;10535211;28;20035;-82
2023/04/04 16:14:37;;;;;;;2.63;1.55;;;;;;;;;;10539837;28;20020;-82
2023/04/04 16:19:39;;;;;;;2.53;1.40;;;;;;;;;;10563829;28;20020;-82
2023/04/04 16:24:40;;;;;;;2.58;1.40;;;;;;;;;;10523543;28;20555;-81
2023/04/04 16:29:42;;;;;;;2.80;1.38;;;;;;;;;;10526297;28;20027;-81
2023/04/04 16:34:44;;;;;;;5.72;2.75;;;;;;;;;;10546694;28;20374;-81
2023/04/04 16:39:45;;;;;;;3.65;1.98;;;;;;;;;;10524225;28;20027;-81
2023/04/04 16:44:46;;;;;;;2.92;1.85;;;;;;;;;;10524395;28;20060;-81
2023/04/04 16:49:48;;;;;;;3.28;1.63;;;;;;;;;;10528436;28;20028;-81
2023/04/04 16:54:49;;;;;;;2.58;1.70;;;;;;;;;;10527537;28;20020;-81
2023/04/04 16:59:50;;;;;;;7.38;3.47;;;;;;;;;;10553846;28;20521;-81
2023/04/04 17:04:51;;;;;;;3.83;2.00;;;;;;;;;;10530255;28;20486;-81
2023/04/04 17:09:52;;;;;;;2.78;1.98;;;;;;;;;;10533433;28;20073;-81
2023/04/04 17:14:53;;;;;;;4.97;2.30;;;;;;;;;;10545700;28;20020;-80
2023/04/04 17:19:54;;;;;;;2.40;1.80;;;;;;;;;;10561843;28;20028;-80
2023/04/04 17:24:55;;;;;;;3.50;2.42;;;;;;;;;;10562974;28;20020;-80
2023/04/04 17:29:56;;;;;;;4.00;1.92;;;;;;;;;;10580122;28;20028;-81
2023/04/04 17:34:58;;;;;;;3.70;2.42;;;;;;;;;;10531370;28;20074;-81
2023/04/04 17:40:02;;;;;;;3.10;1.75;;;;;;;;;;10532023;28;20114;-82
2023/04/04 17:45:05;;;;;;;2.50;1.23;;;;;;;;;;10532000;28;20115;-82
2023/04/04 17:50:06;;;;;;;4.13;1.80;;;;;;;;;;10533351;28;20028;-81
2023/04/04 17:55:08;;;;;;;4.28;2.85;;;;;;;;;;10531728;28;20553;-81
2023/04/04 18:00:09;;;;;;;6.93;4.78;;;;;;;;;;10531907;28;20203;-82
2023/04/04 18:05:11;;;;;;;3.53;1.63;;;;;;;;;;10560193;23;20112;-79
2023/04/04 18:10:12;;;;;;;3.90;2.67;;;;;;;;;;10560256;28;20035;-79
2023/04/04 18:15:13;;;;;;;9.00;5.68;;;;;;;;;;10559523;28;20031;-80
2023/04/04 18:20:15;;;;;;;20.20;14.23;;;;;;;;;;10558771;28;20038;-80
2023/04/04 18:25:17;;;;;;;81.07;55.50;;;;;;;;;;10557994;28;20028;-80
2023/04/04 18:30:18;;;;;;;3.75;2.63;;;;;;;;;;10558108;28;20020;-79
2023/04/04 18:35:19;;;;;;;4.63;2.75;;;;;;;;;;10556208;28;20024;-80
2023/04/04 18:40:20;;;;;;;3.78;2.35;;;;;;;;;;10555578;28;20024;-79
2023/04/04 18:45:21;;;;;;;3.22;2.15;;;;;;;;;;10556646;28;20030;-79
2023/04/04 18:50:23;;;;;;;3.40;2.22;;;;;;;;;;10556577;28;20027;-79
2023/04/04 18:55:24;;;;;;;4.32;2.25;;;;;;;;;;10557633;28;20047;-79
2023/04/04 19:00:25;;;;;;;2.83;1.90;;;;;;;;;;10564278;28;20096;-79
2023/04/04 19:05:32;;;;;;;3.42;1.90;;;;;;;;;;10562183;28;20043;-80
2023/04/04 19:10:33;;;;;;;4.20;3.22;;;;;;;;;;10560923;28;20050;-79
2023/04/04 19:15:34;;;;;;;4.45;2.78;;;;;;;;;;10562121;28;20107;-79
